Terminal Aerodrome Forecast
Issued by NWS

Home | Current Version | Previous Version | Graphics & Text | Print | Product List | Glossary On
Versions: 1 2 3 4 5 6 7 8 9 10 11 12 13 14 15 16 17 18
000
FTUS43 KMPX 151640 AAA
TAFRWF
TAF AMD
KRWF 151640Z 1517/1612 26005KT 4SM -SN BR BKN008 OVC015
     FM151800 23007KT P6SM OVC020
      TEMPO 1518/1520 4SM -SN SCT008 BKN020
     FM152000 20007KT P6SM OVC030
     FM160500 17006KT P6SM OVC060
     FM161000 11004KT P6SM OVC250=

USA.gov is the U.S. government's official web portal to all federal, state and local government web resources and services.